createdAt,value
2017-08-28T00:00:31.656Z,12.70
2017-08-28T00:02:59.182Z,12.60
2017-08-28T00:05:26.722Z,12.50
2017-08-28T00:07:54.243Z,12.50
2017-08-28T00:10:21.877Z,12.40
2017-08-28T00:12:49.402Z,12.40
2017-08-28T00:15:17.702Z,12.30
2017-08-28T00:17:45.207Z,12.30
2017-08-28T00:20:12.728Z,12.30
2017-08-28T00:22:40.231Z,12.20
2017-08-28T00:25:07.747Z,12.20
2017-08-28T00:27:35.280Z,12.20
2017-08-28T00:30:02.914Z,12.20
2017-08-28T00:32:30.406Z,12.20
2017-08-28T00:34:57.933Z,12.10
2017-08-28T00:37:25.455Z,12.10
2017-08-28T00:39:52.956Z,12.10
2017-08-28T00:42:20.502Z,12.00
2017-08-28T00:44:48.115Z,12.00
2017-08-28T00:47:15.626Z,12.00
2017-08-28T00:49:43.171Z,11.90
2017-08-28T00:52:10.701Z,11.90
2017-08-28T00:54:38.209Z,11.90
2017-08-28T00:57:05.758Z,11.90
2017-08-28T00:59:33.256Z,11.90
2017-08-28T01:02:00.823Z,11.80
2017-08-28T01:04:28.356Z,11.80
2017-08-28T01:06:56.620Z,11.80
2017-08-28T01:09:24.220Z,11.70
2017-08-28T01:11:51.765Z,11.70
2017-08-28T01:14:19.336Z,11.70
2017-08-28T01:16:46.854Z,11.70
2017-08-28T01:19:14.391Z,11.70
2017-08-28T01:21:41.892Z,11.70
2017-08-28T01:24:09.470Z,11.60
2017-08-28T01:26:36.996Z,11.60
2017-08-28T01:29:05.265Z,11.50
2017-08-28T01:31:32.764Z,11.50
2017-08-28T01:34:00.310Z,11.50
2017-08-28T01:36:27.826Z,11.50
2017-08-28T01:38:55.342Z,11.50
2017-08-28T01:41:22.895Z,11.40
2017-08-28T01:43:50.414Z,11.40
2017-08-28T01:46:17.920Z,11.30
2017-08-28T01:48:45.451Z,11.30
2017-08-28T01:51:12.956Z,11.20
2017-08-28T01:53:40.463Z,11.20
2017-08-28T01:56:07.992Z,11.20
2017-08-28T01:58:35.501Z,11.20
2017-08-28T02:01:03.004Z,11.20
2017-08-28T02:03:30.539Z,11.20
2017-08-28T02:05:58.040Z,11.10
2017-08-28T02:08:26.312Z,11.20
2017-08-28T02:10:53.844Z,11.10
2017-08-28T02:13:21.370Z,11.20
2017-08-28T02:15:48.881Z,11.20
2017-08-28T02:18:16.489Z,11.20
2017-08-28T02:20:44.009Z,11.20
2017-08-28T02:23:11.531Z,11.10
2017-08-28T02:25:39.082Z,11.10
2017-08-28T02:28:06.580Z,11.10
2017-08-28T02:30:34.104Z,11.20
2017-08-28T02:33:01.658Z,11.20
2017-08-28T02:35:29.165Z,11.10
2017-08-28T02:37:56.663Z,11.10
2017-08-28T02:40:24.191Z,11.00
2017-08-28T02:42:51.691Z,11.00
2017-08-28T02:45:19.214Z,10.90
2017-08-28T02:47:46.774Z,10.90
2017-08-28T02:50:14.281Z,10.90
2017-08-28T02:52:41.781Z,10.90
2017-08-28T02:55:09.316Z,10.80
2017-08-28T02:57:36.820Z,10.80
2017-08-28T03:00:04.324Z,10.80
2017-08-28T03:02:31.865Z,10.80
2017-08-28T03:04:59.372Z,10.70
2017-08-28T03:07:26.894Z,10.70
2017-08-28T03:09:54.458Z,10.70
2017-08-28T03:12:21.970Z,10.60
2017-08-28T03:14:49.532Z,10.60
2017-08-28T03:17:17.087Z,10.60
2017-08-28T03:19:44.595Z,10.50
2017-08-28T03:22:12.096Z,10.50
2017-08-28T03:24:39.665Z,10.50
2017-08-28T03:27:07.224Z,10.40
2017-08-28T03:29:34.737Z,10.40
2017-08-28T03:32:02.344Z,10.40
2017-08-28T03:34:29.852Z,10.40
2017-08-28T03:36:57.369Z,10.40
2017-08-28T03:39:24.907Z,10.40
2017-08-28T03:41:52.436Z,10.40
2017-08-28T03:44:20.708Z,10.30
2017-08-28T03:46:48.243Z,10.30
2017-08-28T03:49:15.743Z,10.40
2017-08-28T03:51:43.266Z,10.30
2017-08-28T03:54:10.812Z,10.30
2017-08-28T03:56:38.344Z,10.40
2017-08-28T03:59:05.866Z,10.30
2017-08-28T04:01:33.399Z,10.30
2017-08-28T04:04:00.919Z,10.30
2017-08-28T04:06:28.438Z,10.30
2017-08-28T04:08:56.732Z,10.30
2017-08-28T04:11:24.259Z,10.20
2017-08-28T04:13:51.786Z,10.20
2017-08-28T04:16:19.338Z,10.20
2017-08-28T04:18:46.844Z,10.20
2017-08-28T04:21:14.361Z,10.20
2017-08-28T04:23:42.867Z,10.20
2017-08-28T04:26:10.393Z,10.20
2017-08-28T04:28:37.905Z,10.20
2017-08-28T04:31:05.466Z,10.20
2017-08-28T04:33:32.982Z,10.20
2017-08-28T04:36:00.505Z,10.20
2017-08-28T04:38:28.059Z,10.20
2017-08-28T04:40:55.558Z,10.20
2017-08-28T04:43:23.060Z,10.20
2017-08-28T04:45:51.360Z,10.20
2017-08-28T04:48:18.868Z,10.20
2017-08-28T04:50:46.381Z,10.30
2017-08-28T04:53:14.362Z,10.30
2017-08-28T04:55:41.868Z,10.40
2017-08-28T04:58:09.382Z,10.40
2017-08-28T05:00:36.947Z,10.50
2017-08-28T05:03:04.456Z,10.50
2017-08-28T05:05:31.964Z,10.50
2017-08-28T05:07:59.522Z,10.60
2017-08-28T05:10:27.037Z,10.60
2017-08-28T05:12:55.341Z,10.70
2017-08-28T05:15:22.890Z,10.70
2017-08-28T05:17:50.406Z,10.80
2017-08-28T05:20:17.926Z,10.90
2017-08-28T05:22:45.511Z,11.00
2017-08-28T05:25:13.035Z,11.10
2017-08-28T05:27:40.558Z,11.10
2017-08-28T05:30:08.157Z,11.20
2017-08-28T05:32:35.673Z,11.30
2017-08-28T05:35:03.196Z,11.40
2017-08-28T05:37:30.746Z,11.50
2017-08-28T05:39:58.257Z,11.60
2017-08-28T05:42:25.847Z,11.70
2017-08-28T05:44:53.379Z,11.80
2017-08-28T05:47:21.680Z,12.10
2017-08-28T05:49:49.183Z,12.10
2017-08-28T05:52:16.721Z,12.20
2017-08-28T05:54:44.246Z,12.40
2017-08-28T05:57:11.775Z,12.50
2017-08-28T05:59:39.327Z,12.70
2017-08-28T06:02:07.618Z,13.00
2017-08-28T06:04:35.134Z,13.00
2017-08-28T06:07:02.664Z,13.20
2017-08-28T06:09:30.192Z,13.30
2017-08-28T06:11:57.735Z,13.50
2017-08-28T06:14:25.265Z,13.70
2017-08-28T06:16:52.889Z,13.80
2017-08-28T06:19:20.399Z,14.00
2017-08-28T06:21:48.022Z,14.20
2017-08-28T06:24:15.520Z,14.30
2017-08-28T06:26:43.038Z,14.50
2017-08-28T06:29:10.563Z,14.80
2017-08-28T06:31:38.076Z,15.10
2017-08-28T06:34:05.567Z,15.50
2017-08-28T06:36:33.096Z,16.00
2017-08-28T06:39:00.611Z,16.70
2017-08-28T06:41:28.182Z,17.70
2017-08-28T06:43:55.703Z,18.70
2017-08-28T06:46:23.307Z,19.60
2017-08-28T06:48:50.817Z,20.30
2017-08-28T06:51:18.424Z,21.10
2017-08-28T06:53:45.974Z,21.90
2017-08-28T06:56:13.467Z,22.50
2017-08-28T06:58:41.001Z,22.50
2017-08-28T07:01:08.500Z,22.70
2017-08-28T07:03:36.013Z,23.20
2017-08-28T07:06:03.539Z,23.30
2017-08-28T07:08:31.132Z,23.60
2017-08-28T07:10:58.633Z,24.40
2017-08-28T07:13:26.170Z,24.90
2017-08-28T07:15:53.664Z,25.40
2017-08-28T07:18:21.174Z,25.70
2017-08-28T07:20:48.708Z,26.00
2017-08-28T07:23:16.222Z,26.20
2017-08-28T07:25:43.932Z,26.70
2017-08-28T07:28:11.456Z,26.80
2017-08-28T07:30:38.965Z,27.30
2017-08-28T07:33:06.478Z,28.10
2017-08-28T07:35:34.792Z,28.00
2017-08-28T07:38:02.302Z,27.90
2017-08-28T07:40:29.814Z,28.40
2017-08-28T07:42:57.343Z,28.70
2017-08-28T07:45:24.853Z,28.70
2017-08-28T07:47:52.352Z,29.10
2017-08-28T07:50:20.639Z,30.20
2017-08-28T07:52:48.908Z,29.60
2017-08-28T07:55:16.418Z,29.60
2017-08-28T07:57:43.961Z,30.00
2017-08-28T08:00:11.464Z,30.10
2017-08-28T08:02:38.974Z,30.30
2017-08-28T08:05:06.496Z,30.80
2017-08-28T08:07:34.014Z,31.30
2017-08-28T08:10:01.531Z,31.80
2017-08-28T08:12:29.252Z,32.50
2017-08-28T08:14:56.752Z,32.30
2017-08-28T08:17:24.265Z,33.10
2017-08-28T08:19:51.885Z,33.60
2017-08-28T08:22:19.380Z,34.10
2017-08-28T08:24:47.005Z,33.60
2017-08-28T08:27:14.533Z,34.10
2017-08-28T08:29:42.039Z,34.10
2017-08-28T08:32:09.544Z,34.00
2017-08-28T08:34:37.094Z,33.70
2017-08-28T08:37:04.871Z,33.70
2017-08-28T08:39:33.155Z,33.90
2017-08-28T08:42:00.681Z,33.90
2017-08-28T08:44:28.184Z,34.80
2017-08-28T08:46:55.702Z,34.80
2017-08-28T08:49:23.312Z,34.30
2017-08-28T08:51:50.812Z,34.70
2017-08-28T08:54:18.433Z,35.40
2017-08-28T08:56:45.978Z,36.10
2017-08-28T08:59:13.494Z,36.00
2017-08-28T09:01:40.997Z,36.10
2017-08-28T09:04:08.523Z,36.50
2017-08-28T09:06:36.043Z,36.30
2017-08-28T09:09:03.544Z,36.60
2017-08-28T09:11:31.160Z,34.80
2017-08-28T09:13:58.664Z,34.90
2017-08-28T09:16:26.178Z,35.00
2017-08-28T09:18:53.708Z,35.10
2017-08-28T09:21:21.216Z,35.90
2017-08-28T09:23:48.750Z,36.70
2017-08-28T09:26:16.276Z,36.20
2017-08-28T09:28:43.798Z,36.80
2017-08-28T09:31:11.300Z,37.10
2017-08-28T09:33:38.842Z,37.10
2017-08-28T09:36:06.354Z,36.50
2017-08-28T09:38:33.853Z,37.30
2017-08-28T09:41:01.397Z,36.40
2017-08-28T09:43:28.896Z,35.90
2017-08-28T09:45:56.396Z,36.30
2017-08-28T09:48:23.938Z,36.50
2017-08-28T09:50:51.440Z,37.50
2017-08-28T09:53:18.940Z,38.70
2017-08-28T09:55:46.486Z,39.10
2017-08-28T09:58:13.998Z,39.70
2017-08-28T10:00:41.510Z,39.60
2017-08-28T10:03:09.032Z,39.00
2017-08-28T10:05:36.542Z,38.80
2017-08-28T10:08:04.047Z,39.30
2017-08-28T10:10:31.571Z,39.90
2017-08-28T10:12:59.069Z,39.20
2017-08-28T10:15:26.671Z,40.10
2017-08-28T10:17:54.196Z,40.60
2017-08-28T10:20:21.691Z,40.20
2017-08-28T10:22:49.189Z,41.10
2017-08-28T10:25:16.811Z,41.10
2017-08-28T10:27:44.309Z,40.30
2017-08-28T10:30:11.823Z,39.10
2017-08-28T10:32:39.360Z,39.50
2017-08-28T10:35:07.634Z,41.10
2017-08-28T10:37:35.222Z,41.10
2017-08-28T10:40:02.771Z,41.20
2017-08-28T10:42:30.294Z,41.50
2017-08-28T10:44:57.810Z,42.60
2017-08-28T10:47:25.358Z,43.40
2017-08-28T10:49:52.873Z,43.80
2017-08-28T10:52:20.380Z,42.60
2017-08-28T10:54:47.907Z,43.00
2017-08-28T10:57:15.423Z,43.10
2017-08-28T10:59:42.919Z,42.90
2017-08-28T11:02:10.466Z,43.40
2017-08-28T11:04:37.978Z,43.20
2017-08-28T11:07:05.477Z,43.20
2017-08-28T11:09:33.016Z,41.40
2017-08-28T11:12:00.526Z,41.90
2017-08-28T11:14:28.034Z,43.20
2017-08-28T11:16:55.574Z,43.90
2017-08-28T11:19:23.086Z,44.90
2017-08-28T11:21:50.602Z,46.60
2017-08-28T11:24:18.145Z,47.40
2017-08-28T11:26:45.644Z,47.30
2017-08-28T11:29:13.144Z,47.40
2017-08-28T11:31:40.691Z,47.10
2017-08-28T11:34:08.205Z,47.00
2017-08-28T11:36:35.705Z,46.90
2017-08-28T11:39:03.236Z,47.60
2017-08-28T11:41:30.750Z,48.00
2017-08-28T11:43:58.262Z,49.00
2017-08-28T11:46:25.802Z,49.60
2017-08-28T11:48:53.310Z,49.70
2017-08-28T11:51:20.871Z,49.90
2017-08-28T11:53:48.400Z,49.30
2017-08-28T11:56:16.664Z,50.70
2017-08-28T11:58:44.946Z,51.40
2017-08-28T12:01:12.472Z,51.40
2017-08-28T12:03:40.046Z,52.40
2017-08-28T12:06:07.562Z,52.40
2017-08-28T12:08:35.101Z,52.60
2017-08-28T12:11:02.614Z,52.60
2017-08-28T12:13:30.125Z,53.00
2017-08-28T12:15:57.645Z,52.30
2017-08-28T12:18:25.136Z,52.90
2017-08-28T12:20:52.654Z,52.70
2017-08-28T12:23:20.184Z,53.50
2017-08-28T12:25:47.705Z,54.10
2017-08-28T12:28:15.242Z,54.60
2017-08-28T12:30:43.536Z,54.20
2017-08-28T12:33:11.044Z,54.20
2017-08-28T12:35:38.544Z,54.80
2017-08-28T12:38:06.089Z,55.10
2017-08-28T12:40:33.579Z,54.70
2017-08-28T12:43:01.072Z,54.00
2017-08-28T12:45:28.707Z,52.90
2017-08-28T12:47:56.204Z,54.40
2017-08-28T12:50:23.722Z,54.40
2017-08-28T12:52:51.270Z,53.70
2017-08-28T12:55:18.795Z,54.60
2017-08-28T12:57:46.291Z,55.50
2017-08-28T13:00:13.816Z,55.20
2017-08-28T13:02:41.316Z,54.90
2017-08-28T13:05:08.820Z,54.40
2017-08-28T13:07:36.376Z,54.30
2017-08-28T13:10:03.880Z,54.00
2017-08-28T13:12:31.408Z,54.20
2017-08-28T13:14:59.725Z,54.20
2017-08-28T13:17:27.224Z,54.20
2017-08-28T13:19:54.747Z,53.20
2017-08-28T13:22:22.273Z,52.60
2017-08-28T13:24:49.802Z,53.00
2017-08-28T13:27:17.366Z,53.90
2017-08-28T13:29:44.918Z,53.00
2017-08-28T13:32:12.430Z,54.00
2017-08-28T13:34:39.950Z,53.00
2017-08-28T13:37:07.495Z,53.10
2017-08-28T13:39:35.019Z,53.70
2017-08-28T13:42:02.535Z,53.20
2017-08-28T13:44:30.083Z,53.90
2017-08-28T13:46:57.587Z,53.90
2017-08-28T13:49:25.127Z,51.40
2017-08-28T13:51:52.651Z,50.80
2017-08-28T13:54:20.159Z,51.90
2017-08-28T13:56:47.651Z,52.00
2017-08-28T13:59:15.278Z,51.70
2017-08-28T14:01:42.775Z,52.40
2017-08-28T14:04:10.278Z,52.70
2017-08-28T14:06:37.817Z,52.80
2017-08-28T14:09:06.107Z,50.80
2017-08-28T14:11:33.616Z,50.70
2017-08-28T14:14:01.162Z,50.50
2017-08-28T14:16:28.661Z,50.80
2017-08-28T14:18:56.178Z,49.30
2017-08-28T14:21:23.704Z,49.70
2017-08-28T14:23:51.196Z,49.80
2017-08-28T14:26:18.708Z,50.10
2017-08-28T14:28:46.259Z,50.40
2017-08-28T14:31:13.770Z,51.00
2017-08-28T14:33:41.312Z,50.00
2017-08-28T14:36:08.854Z,49.20
2017-08-28T14:38:36.374Z,48.60
2017-08-28T14:41:03.872Z,49.60
2017-08-28T14:43:31.410Z,48.50
2017-08-28T14:45:59.689Z,45.90
2017-08-28T14:48:27.206Z,45.90
2017-08-28T14:50:54.745Z,45.20
2017-08-28T14:53:22.243Z,45.50
2017-08-28T14:55:49.740Z,45.50
2017-08-28T14:58:17.281Z,45.60
2017-08-28T15:00:45.564Z,45.40
2017-08-28T15:03:13.063Z,45.40
2017-08-28T15:05:40.593Z,45.10
2017-08-28T15:08:08.114Z,44.30
2017-08-28T15:10:35.625Z,44.20
2017-08-28T15:13:03.148Z,43.40
2017-08-28T15:15:30.742Z,42.70
2017-08-28T15:17:58.239Z,41.80
2017-08-28T15:20:25.861Z,41.90
2017-08-28T15:22:53.360Z,40.60
2017-08-28T15:25:20.859Z,40.50
2017-08-28T15:27:48.384Z,39.30
2017-08-28T15:30:15.903Z,37.90
2017-08-28T15:32:43.404Z,37.00
2017-08-28T15:35:10.930Z,36.30
2017-08-28T15:37:38.466Z,35.20
2017-08-28T15:40:05.959Z,34.80
2017-08-28T15:42:33.492Z,33.90
2017-08-28T15:45:00.995Z,33.80
2017-08-28T15:47:28.507Z,33.30
2017-08-28T15:49:56.037Z,32.90
2017-08-28T15:52:23.546Z,32.70
2017-08-28T15:54:51.058Z,32.20
2017-08-28T15:57:18.584Z,31.50
2017-08-28T15:59:46.093Z,31.40
2017-08-28T16:02:13.587Z,31.00
2017-08-28T16:04:41.134Z,31.00
2017-08-28T16:07:08.640Z,30.60
2017-08-28T16:09:36.166Z,30.00
2017-08-28T16:12:03.713Z,29.50
2017-08-28T16:14:31.208Z,29.10
2017-08-28T16:16:58.708Z,28.60
2017-08-28T16:19:26.238Z,28.50
2017-08-28T16:21:53.734Z,28.50
2017-08-28T16:24:21.235Z,28.40
2017-08-28T16:26:48.779Z,28.30
2017-08-28T16:29:16.298Z,28.10
2017-08-28T16:31:43.819Z,27.80
2017-08-28T16:34:11.363Z,27.70
2017-08-28T16:36:38.865Z,27.60
2017-08-28T16:39:06.383Z,27.50
2017-08-28T16:41:34.676Z,27.40
2017-08-28T16:44:02.195Z,27.40
2017-08-28T16:46:29.819Z,27.40
2017-08-28T16:48:57.344Z,27.20
2017-08-28T16:51:24.866Z,27.20
2017-08-28T16:53:52.374Z,27.00
2017-08-28T16:56:19.914Z,27.00
2017-08-28T16:58:47.422Z,26.80
2017-08-28T17:01:14.937Z,26.70
2017-08-28T17:03:42.468Z,26.50
2017-08-28T17:06:09.991Z,26.30
2017-08-28T17:08:37.502Z,26.20
2017-08-28T17:11:05.031Z,26.10
2017-08-28T17:13:32.542Z,26.00
2017-08-28T17:16:00.043Z,25.90
2017-08-28T17:18:27.582Z,25.90
2017-08-28T17:20:55.092Z,25.70
2017-08-28T17:23:22.595Z,25.70
2017-08-28T17:25:50.139Z,25.50
2017-08-28T17:28:17.631Z,25.40
2017-08-28T17:30:45.142Z,25.30
2017-08-28T17:33:12.680Z,25.10
2017-08-28T17:35:40.203Z,25.00
2017-08-28T17:38:07.722Z,24.80
2017-08-28T17:40:35.264Z,24.70
2017-08-28T17:43:03.547Z,24.40
2017-08-28T17:45:31.057Z,24.30
2017-08-28T17:47:58.593Z,24.20
2017-08-28T17:50:26.083Z,24.20
2017-08-28T17:52:53.594Z,24.00
2017-08-28T17:55:21.130Z,23.90
2017-08-28T17:57:48.649Z,23.80
2017-08-28T18:00:16.139Z,23.70
2017-08-28T18:02:43.691Z,23.60
2017-08-28T18:05:11.191Z,23.50
2017-08-28T18:07:38.705Z,23.30
2017-08-28T18:10:06.231Z,23.20
2017-08-28T18:12:33.750Z,23.00
2017-08-28T18:15:01.263Z,23.00
2017-08-28T18:17:28.810Z,22.90
2017-08-28T18:19:56.322Z,22.90
2017-08-28T18:22:23.821Z,22.80
2017-08-28T18:24:51.358Z,22.60
2017-08-28T18:27:18.867Z,22.50
2017-08-28T18:29:46.378Z,22.30
2017-08-28T18:32:13.905Z,22.20
2017-08-28T18:34:41.476Z,22.20
2017-08-28T18:37:08.987Z,22.10
2017-08-28T18:39:36.516Z,22.00
2017-08-28T18:42:04.032Z,21.90
2017-08-28T18:44:31.553Z,21.80
2017-08-28T18:46:59.098Z,21.70
2017-08-28T18:49:26.606Z,21.60
2017-08-28T18:51:54.118Z,21.50
2017-08-28T18:54:21.644Z,21.40
2017-08-28T18:56:49.144Z,21.30
2017-08-28T18:59:16.648Z,21.20
2017-08-28T19:01:44.192Z,21.10
2017-08-28T19:04:11.697Z,21.10
2017-08-28T19:06:39.196Z,21.10
2017-08-28T19:09:06.747Z,21.10
2017-08-28T19:11:34.361Z,21.00
2017-08-28T19:14:01.874Z,21.00
2017-08-28T19:16:29.419Z,20.90
2017-08-28T19:18:56.934Z,20.90
2017-08-28T19:21:24.454Z,20.70
2017-08-28T19:23:52.027Z,20.60
2017-08-28T19:26:19.606Z,20.60
2017-08-28T19:28:47.138Z,20.50
2017-08-28T19:31:15.487Z,20.30
2017-08-28T19:36:44.275Z,20.20
2017-08-28T19:39:11.780Z,20.10
2017-08-28T19:41:39.295Z,20.10
2017-08-28T19:44:07.600Z,19.90
2017-08-28T19:46:35.262Z,19.90
2017-08-28T19:49:02.775Z,19.80
2017-08-28T19:51:30.300Z,19.80
2017-08-28T19:53:57.820Z,19.70
2017-08-28T19:56:25.347Z,19.70
2017-08-28T19:58:52.840Z,19.60
2017-08-28T20:01:20.386Z,19.60
2017-08-28T20:03:47.879Z,19.50
2017-08-28T20:06:15.385Z,19.50
2017-08-28T20:08:42.925Z,19.40
2017-08-28T20:11:10.437Z,19.30
2017-08-28T20:13:37.960Z,19.20
2017-08-28T20:16:05.474Z,19.10
2017-08-28T20:18:32.969Z,19.10
2017-08-28T20:21:00.487Z,19.10
2017-08-28T20:23:27.989Z,19.00
2017-08-28T20:25:55.511Z,18.90
2017-08-28T20:28:23.026Z,18.90
2017-08-28T20:30:51.310Z,18.70
2017-08-28T20:33:18.842Z,18.70
2017-08-28T20:35:46.340Z,18.70
2017-08-28T20:38:13.868Z,18.60
2017-08-28T20:40:41.369Z,18.60
2017-08-28T20:43:08.897Z,18.60
2017-08-28T20:45:36.419Z,18.50
2017-08-28T20:48:03.936Z,18.50
2017-08-28T20:50:31.472Z,18.50
2017-08-28T20:52:58.968Z,18.40
2017-08-28T20:55:26.468Z,18.40
2017-08-28T20:57:54.006Z,18.30
2017-08-28T21:00:21.499Z,18.20
2017-08-28T21:02:49.044Z,18.20
2017-08-28T21:05:16.643Z,18.20
2017-08-28T21:07:44.158Z,18.10
2017-08-28T21:10:11.680Z,18.10
2017-08-28T21:12:39.176Z,18.10
2017-08-28T21:15:06.711Z,18.00
2017-08-28T21:17:34.234Z,18.00
2017-08-28T21:20:01.760Z,18.00
2017-08-28T21:22:29.278Z,18.00
2017-08-28T21:24:56.888Z,17.80
2017-08-28T21:27:25.188Z,17.70
2017-08-28T21:29:52.702Z,17.70
2017-08-28T21:32:20.215Z,17.60
2017-08-28T21:34:47.739Z,17.50
2017-08-28T21:37:15.278Z,17.50
2017-08-28T21:39:42.800Z,17.40
2017-08-28T21:42:10.309Z,17.40
2017-08-28T21:44:37.855Z,17.40
2017-08-28T21:47:05.352Z,17.30
2017-08-28T21:49:33.636Z,17.30
2017-08-28T21:52:01.210Z,17.20
2017-08-28T21:54:28.734Z,17.30
2017-08-28T21:56:56.246Z,17.20
2017-08-28T21:59:23.771Z,17.20
2017-08-28T22:01:51.274Z,17.20
2017-08-28T22:04:18.807Z,17.20
2017-08-28T22:06:46.346Z,17.40
2017-08-28T22:09:13.920Z,17.50
2017-08-28T22:11:41.420Z,17.50
2017-08-28T22:14:08.954Z,17.70
2017-08-28T22:16:36.472Z,17.60
2017-08-28T22:19:04.022Z,17.60
2017-08-28T22:21:31.555Z,17.50
2017-08-28T22:23:59.079Z,17.40
2017-08-28T22:26:26.598Z,17.30
2017-08-28T22:28:54.888Z,17.00
2017-08-28T22:31:22.407Z,17.10
2017-08-28T22:33:49.919Z,16.90
2017-08-28T22:36:17.463Z,16.90
2017-08-28T22:38:44.955Z,16.80
2017-08-28T22:41:12.468Z,16.70
2017-08-28T22:43:39.981Z,16.70
2017-08-28T22:46:07.518Z,16.70
2017-08-28T22:48:35.024Z,16.60
2017-08-28T22:51:02.537Z,16.60
2017-08-28T22:53:30.052Z,16.70
2017-08-28T22:55:58.366Z,16.80
2017-08-28T22:58:25.904Z,16.70
2017-08-28T23:00:53.435Z,16.80
2017-08-28T23:03:20.937Z,16.90
2017-08-28T23:05:48.470Z,17.20
2017-08-28T23:08:15.978Z,17.50
2017-08-28T23:10:43.499Z,17.70
2017-08-28T23:13:11.034Z,17.90
2017-08-28T23:15:38.554Z,18.00
2017-08-28T23:18:06.099Z,17.90
2017-08-28T23:20:33.623Z,18.00
2017-08-28T23:23:01.162Z,18.00
2017-08-28T23:25:28.929Z,18.00
2017-08-28T23:27:56.447Z,18.00
2017-08-28T23:30:23.975Z,17.90
2017-08-28T23:32:51.467Z,17.80
2017-08-28T23:35:19.759Z,17.50
2017-08-28T23:37:47.449Z,17.50
2017-08-28T23:40:14.964Z,17.50
2017-08-28T23:42:42.563Z,17.40
2017-08-28T23:45:10.079Z,17.30
2017-08-28T23:47:37.608Z,17.30
2017-08-28T23:50:05.118Z,17.20
2017-08-28T23:52:32.638Z,17.10
2017-08-28T23:55:00.136Z,17.00
2017-08-28T23:57:27.660Z,16.90
2017-08-28T23:59:55.170Z,16.70
